createdAt,value
2019-04-22T00:02:20.728Z,17.48
2019-04-22T02:59:32.552Z,14.83
2019-04-22T03:02:07.695Z,14.85
2019-04-22T03:04:35.744Z,12.85
2019-04-22T03:06:56.113Z,15.15
2019-04-22T03:09:35.706Z,15.88
2019-04-22T03:12:11.539Z,12.35
2019-04-22T03:14:30.723Z,15.63
2019-04-22T03:17:03.132Z,13.70
2019-04-22T03:24:25.867Z,16.27
2019-04-22T03:29:58.349Z,16.25
2019-04-22T03:32:40.340Z,14.50
2019-04-22T03:37:23.239Z,13.90
2019-04-22T03:44:38.559Z,14.58
2019-04-22T03:49:49.066Z,14.13
2019-04-22T03:52:10.785Z,13.60
2019-04-22T03:54:52.095Z,17.60
2019-04-22T04:04:36.032Z,15.00
2019-04-22T04:07:15.092Z,13.48
2019-04-22T04:09:33.795Z,13.68
2019-04-22T04:12:07.858Z,13.88
2019-04-22T04:14:37.877Z,14.10
2019-04-22T04:17:04.189Z,15.05
2019-04-22T04:19:36.797Z,13.38
2019-04-22T04:22:02.464Z,16.82
2019-04-22T04:24:48.507Z,14.65
2019-04-22T04:27:07.603Z,13.90
2019-04-22T04:32:05.368Z,13.68
2019-04-22T04:34:43.327Z,15.25
2019-04-22T04:37:18.419Z,14.00
2019-04-22T04:39:26.426Z,14.13
2019-04-22T04:42:05.466Z,13.78
2019-04-22T04:44:23.427Z,13.75
2019-04-22T04:49:43.503Z,16.48
2019-04-22T04:51:47.192Z,16.27
2019-04-22T05:01:45.092Z,14.00
2019-04-22T05:06:51.257Z,12.55
2019-04-22T05:14:09.317Z,12.95
2019-04-22T05:16:41.085Z,13.85
2019-04-22T05:19:20.817Z,12.37
2019-04-22T05:21:38.519Z,11.12
2019-04-22T05:24:09.507Z,13.20
2019-04-22T05:26:37.637Z,13.35
2019-04-22T05:29:03.709Z,11.18
2019-04-22T05:31:34.002Z,12.13
2019-04-22T05:34:01.597Z,12.18
2019-04-22T05:36:28.564Z,12.03
2019-04-22T05:41:23.619Z,12.80
2019-04-22T05:43:59.907Z,11.97
2019-04-22T05:46:24.910Z,11.00
2019-04-22T05:48:55.392Z,12.20
2019-04-22T05:51:27.757Z,11.97
2019-04-22T05:53:59.532Z,11.65
2019-04-22T05:56:28.210Z,11.57
2019-04-22T05:58:53.225Z,12.07
2019-04-22T06:03:52.862Z,11.30
2019-04-22T06:06:18.061Z,12.70
2019-04-22T06:08:48.821Z,11.48
2019-04-22T06:11:23.628Z,13.10
2019-04-22T06:13:38.841Z,14.10
2019-04-22T06:16:17.963Z,14.00
2019-04-22T06:18:54.901Z,13.38
2019-04-22T06:23:46.329Z,12.23
2019-04-22T06:33:41.174Z,13.33
2019-04-22T06:36:08.037Z,11.93
2019-04-22T06:41:09.054Z,12.57
2019-04-22T07:33:01.084Z,11.50
2019-04-22T07:35:07.476Z,12.13
2019-04-22T07:37:37.165Z,10.30
2019-04-22T07:40:02.346Z,11.10
2019-04-22T07:45:08.629Z,10.40
2019-04-22T07:47:37.786Z,11.77
2019-04-22T07:50:22.966Z,10.43
2019-04-22T07:52:41.458Z,10.73
2019-04-22T07:55:08.770Z,10.00
2019-04-22T07:57:41.273Z,11.00
2019-04-22T08:00:11.145Z,10.33
2019-04-22T08:02:42.068Z,10.40
2019-04-22T08:07:36.048Z,10.30
2019-04-22T08:10:16.692Z,10.40
2019-04-22T08:15:03.744Z,10.30
2019-04-22T08:20:02.993Z,10.30
2019-04-22T08:22:27.984Z,9.57
2019-04-22T08:25:00.284Z,8.83
2019-04-22T08:27:31.854Z,9.43
2019-04-22T08:30:14.343Z,8.90
2019-04-22T08:32:32.678Z,9.07
2019-04-22T08:34:56.182Z,8.97
2019-04-22T08:39:48.567Z,9.53
2019-04-22T08:42:37.496Z,8.93
2019-04-22T08:49:56.858Z,9.53
2019-04-22T08:52:26.107Z,8.70
2019-04-22T08:54:51.257Z,8.97
2019-04-22T08:57:24.166Z,8.53
2019-04-22T08:59:48.647Z,9.03
2019-04-22T09:02:24.284Z,9.33
2019-04-22T09:04:45.379Z,8.80
2019-04-22T09:07:21.226Z,8.77
2019-04-22T09:09:44.553Z,9.67
2019-04-22T09:12:14.279Z,9.27
2019-04-22T09:14:41.643Z,9.27
2019-04-22T09:17:13.688Z,8.50
2019-04-22T09:19:38.514Z,9.30
2019-04-22T09:22:11.297Z,9.40
2019-04-22T09:24:36.927Z,9.87
2019-04-22T09:27:11.555Z,9.50
2019-04-22T09:29:41.249Z,9.33
2019-04-22T09:34:33.741Z,8.70
2019-04-22T09:37:11.909Z,9.87
2019-04-22T09:39:37.533Z,9.00
2019-04-22T09:42:05.036Z,9.57
2019-04-22T09:44:36.717Z,9.00
2019-04-22T09:47:05.163Z,8.87
2019-04-22T09:49:36.929Z,9.87
2019-04-22T09:52:01.419Z,10.10
2019-04-22T09:54:43.063Z,9.63
2019-04-22T09:56:57.088Z,9.83
2019-04-22T09:59:27.152Z,9.37
2019-04-22T10:04:30.898Z,10.50
2019-04-22T10:06:45.520Z,10.47
2019-04-22T10:09:53.128Z,10.30
2019-04-22T10:11:50.625Z,11.93
2019-04-22T10:14:19.305Z,11.27
2019-04-22T10:16:51.428Z,10.77
2019-04-22T10:19:18.747Z,11.00
2019-04-22T10:21:49.953Z,10.87
2019-04-22T10:24:16.626Z,11.17
2019-04-22T10:26:44.015Z,10.30
2019-04-22T10:29:18.369Z,11.27
2019-04-22T10:31:44.758Z,13.87
2019-04-22T10:34:00.137Z,10.53
2019-04-22T10:36:19.503Z,9.73
2019-04-22T10:38:48.576Z,10.67
2019-04-22T10:41:16.568Z,10.37
2019-04-22T10:43:45.279Z,8.23
2019-04-22T10:46:13.888Z,8.97
2019-04-22T10:48:42.065Z,10.33
2019-04-22T10:51:10.660Z,9.97
2019-04-22T10:53:39.726Z,10.70
2019-04-22T10:56:07.272Z,10.80
2019-04-22T10:58:34.931Z,10.60
2019-04-22T11:01:03.407Z,11.30
2019-04-22T11:03:31.204Z,10.60
2019-04-22T11:06:03.296Z,10.33
2019-04-22T11:08:40.698Z,9.70
2019-04-22T11:11:16.685Z,11.10
2019-04-22T11:13:31.765Z,9.23
2019-04-22T11:16:00.435Z,9.63
2019-04-22T11:18:27.911Z,9.80
2019-04-22T11:20:55.767Z,8.90
2019-04-22T11:23:24.597Z,9.90
2019-04-22T11:25:53.992Z,9.60
2019-04-22T11:28:21.196Z,8.90
2019-04-22T11:30:48.638Z,9.07
2019-04-22T11:33:16.382Z,8.40
2019-04-22T11:35:43.891Z,9.17
2019-04-22T11:38:12.810Z,8.97
2019-04-22T11:40:44.351Z,9.17
2019-04-22T11:43:10.275Z,8.30
2019-04-22T11:45:37.801Z,8.00
2019-04-22T11:48:05.588Z,10.50
2019-04-22T11:50:33.574Z,9.60
2019-04-22T11:53:01.011Z,8.90
2019-04-22T11:55:32.608Z,8.83
2019-04-22T11:58:01.047Z,9.30
2019-04-22T12:00:34.771Z,8.37
2019-04-22T12:03:03.184Z,8.90
2019-04-22T12:05:32.136Z,9.00
2019-04-22T12:07:59.669Z,8.27
2019-04-22T12:10:37.037Z,8.03
2019-04-22T12:12:59.861Z,8.83
2019-04-22T12:15:35.330Z,7.50
2019-04-22T12:18:03.711Z,7.40
2019-04-22T12:20:32.709Z,8.00
2019-04-22T12:23:01.119Z,7.50
2019-04-22T12:25:39.737Z,8.40
2019-04-22T12:27:59.045Z,7.10
2019-04-22T12:30:27.724Z,9.00
2019-04-22T12:32:55.321Z,8.47
2019-04-22T12:35:24.514Z,9.73
2019-04-22T12:37:57.576Z,7.77
2019-04-22T12:40:34.192Z,8.30
2019-04-22T12:42:51.381Z,13.90
2019-04-22T12:45:20.371Z,7.63
2019-04-22T12:47:48.324Z,7.77
2019-04-22T12:50:25.354Z,6.70
2019-04-22T12:52:51.502Z,7.27
2019-04-22T12:55:17.319Z,7.40
2019-04-22T12:57:44.446Z,9.63
2019-04-22T13:00:13.584Z,6.50
2019-04-22T13:02:41.039Z,8.57
2019-04-22T13:05:10.074Z,6.90
2019-04-22T13:07:38.040Z,6.87
2019-04-22T13:10:10.117Z,8.33
2019-04-22T14:13:32.307Z,5.70
2019-04-22T14:16:01.247Z,9.77
2019-04-22T14:18:28.846Z,5.70
2019-04-22T14:20:56.713Z,5.90
2019-04-22T14:23:24.644Z,5.40
2019-04-22T14:25:52.806Z,6.33
2019-04-22T14:28:22.980Z,6.00
2019-04-22T14:30:50.611Z,9.37
2019-04-22T14:33:18.332Z,5.53
2019-04-22T14:35:49.941Z,4.93
2019-04-22T14:38:18.346Z,7.20
2019-04-22T14:40:48.249Z,7.70
2019-04-22T14:43:44.865Z,5.53
2019-04-22T14:46:15.201Z,9.40
2019-04-22T14:48:45.016Z,6.20
2019-04-22T14:51:05.969Z,4.97
2019-04-22T14:53:30.937Z,9.50
2019-04-22T14:55:42.341Z,8.00
2019-04-22T14:58:10.986Z,4.57
2019-04-22T15:00:39.886Z,4.97
2019-04-22T15:03:08.202Z,5.70
2019-04-22T15:05:36.505Z,4.23
2019-04-22T15:08:03.978Z,5.20
2019-04-22T15:10:31.825Z,3.80
2019-04-22T15:13:00.689Z,4.30
2019-04-22T15:15:49.300Z,8.93
2019-04-22T15:18:33.546Z,6.43
2019-04-22T15:21:02.748Z,5.77
2019-04-22T15:23:31.000Z,6.20
2019-04-22T15:25:58.957Z,4.80
2019-04-22T15:28:27.193Z,6.60
2019-04-22T15:30:55.595Z,5.27
2019-04-22T15:33:23.536Z,7.30
2019-04-22T15:35:51.539Z,6.03
2019-04-22T15:38:22.181Z,5.90
2019-04-22T15:40:49.014Z,5.00
2019-04-22T15:43:17.068Z,7.37
2019-04-22T15:45:44.453Z,5.70
2019-04-22T15:48:11.878Z,4.73
2019-04-22T15:50:40.393Z,4.10
2019-04-22T15:53:09.651Z,6.50
2019-04-22T15:55:38.924Z,5.20
2019-04-22T15:58:07.797Z,5.47
2019-04-22T16:00:48.711Z,5.20
2019-04-22T16:03:08.387Z,5.30
2019-04-22T16:05:34.179Z,6.43
2019-04-22T16:08:03.243Z,5.23
2019-04-22T16:10:31.574Z,5.60
2019-04-22T16:13:07.314Z,5.10
2019-04-22T16:15:28.799Z,5.07
2019-04-22T16:17:56.273Z,5.70
2019-04-22T16:20:23.596Z,5.30
2019-04-22T16:23:05.576Z,5.03
2019-04-22T16:25:47.195Z,5.30
2019-04-22T16:28:15.384Z,12.10
2019-04-22T16:30:43.637Z,5.93
2019-04-22T16:33:11.320Z,5.57
2019-04-22T16:35:38.856Z,5.03
2019-04-22T16:38:06.839Z,5.33
2019-04-22T16:40:34.740Z,5.87
2019-04-22T16:43:04.687Z,5.87
2019-04-22T16:45:31.645Z,5.47
2019-04-22T16:48:00.032Z,7.40
2019-04-22T16:50:27.456Z,5.03
2019-04-22T16:52:54.742Z,5.23
2019-04-22T16:55:23.067Z,4.07
2019-04-22T16:57:50.443Z,8.97
2019-04-22T17:00:18.567Z,4.53
2019-04-22T17:02:50.066Z,4.13
2019-04-22T17:05:19.751Z,4.83
2019-04-22T17:07:48.106Z,4.00
2019-04-22T17:10:15.673Z,4.40
2019-04-22T17:12:50.802Z,6.20
2019-04-22T17:15:14.306Z,4.50
2019-04-22T17:17:41.384Z,4.97
2019-04-22T17:20:11.210Z,4.67
2019-04-22T17:22:37.951Z,8.50
2019-04-22T17:25:08.671Z,5.73
2019-04-22T17:27:37.057Z,5.10
2019-04-22T17:30:06.522Z,6.73
2019-04-22T17:32:35.535Z,4.00
2019-04-22T17:59:50.585Z,4.23
2019-04-22T18:02:24.963Z,4.50
2019-04-22T18:04:47.983Z,5.83
2019-04-22T18:07:37.034Z,8.25
2019-04-22T18:10:24.313Z,4.58
2019-04-22T18:15:22.755Z,4.95
2019-04-22T18:17:37.313Z,4.28
2019-04-22T18:20:00.927Z,6.50
2019-04-22T18:22:21.403Z,9.03
2019-04-22T18:24:56.895Z,5.83
2019-04-22T18:29:59.130Z,4.60
2019-04-22T18:32:20.508Z,9.30
2019-04-22T18:34:51.544Z,8.05
2019-04-22T18:37:22.479Z,4.92
2019-04-22T18:40:03.206Z,5.00
2019-04-22T18:42:23.878Z,5.87
2019-04-22T18:45:11.495Z,4.75
2019-04-22T18:47:28.109Z,5.25
2019-04-22T18:49:55.416Z,5.60
2019-04-22T18:52:38.647Z,5.28
2019-04-22T18:55:14.794Z,5.87
2019-04-22T18:58:01.132Z,6.28
2019-04-22T19:00:21.477Z,4.25
2019-04-22T19:02:55.840Z,4.03
2019-04-22T19:05:30.297Z,6.45
2019-04-22T19:08:16.770Z,5.65
2019-04-22T19:10:51.852Z,5.87
2019-04-22T19:13:47.330Z,4.70
2019-04-22T19:15:53.161Z,8.63
2019-04-22T19:18:22.502Z,6.72
2019-04-22T19:20:42.631Z,4.50
2019-04-22T19:23:13.428Z,5.60
2019-04-22T19:25:36.971Z,6.53
2019-04-22T19:28:22.797Z,7.95
2019-04-22T19:30:41.518Z,7.78
2019-04-22T19:33:11.395Z,6.17
2019-04-22T19:35:37.020Z,6.08
2019-04-22T19:38:00.139Z,11.10
2019-04-22T19:40:50.574Z,5.03
2019-04-22T19:43:09.160Z,4.90
2019-04-22T19:45:38.207Z,5.45
2019-04-22T19:48:21.952Z,5.85
2019-04-22T19:50:45.546Z,6.90
2019-04-22T19:53:10.124Z,5.53
2019-04-22T19:55:43.695Z,9.18
2019-04-22T19:58:07.321Z,7.20
2019-04-22T20:00:46.333Z,5.83
2019-04-22T20:03:39.841Z,4.37
2019-04-22T20:06:13.044Z,6.05
2019-04-22T20:08:42.364Z,8.73
2019-04-22T20:11:13.312Z,4.15
2019-04-22T20:13:41.428Z,5.92
2019-04-22T20:16:03.435Z,7.15
2019-04-22T20:18:56.692Z,10.40
2019-04-22T20:21:18.284Z,4.87
2019-04-22T20:23:38.293Z,6.85
2019-04-22T20:26:08.620Z,5.62
2019-04-22T20:28:41.788Z,9.38
2019-04-22T20:31:30.322Z,7.30
2019-04-22T20:34:03.509Z,5.20
2019-04-22T20:36:45.005Z,5.30
2019-04-22T20:38:56.567Z,5.78
2019-04-22T20:41:30.266Z,5.90
2019-04-22T20:44:06.298Z,7.30
2019-04-22T20:46:29.590Z,5.87
2019-04-22T20:49:01.786Z,6.60
2019-04-22T20:51:38.993Z,5.58
2019-04-22T20:54:02.085Z,5.70
2019-04-22T20:56:25.124Z,5.97
2019-04-22T20:58:57.193Z,5.90
2019-04-22T21:01:31.492Z,6.28
2019-04-22T21:04:03.692Z,6.85
2019-04-22T21:06:47.625Z,6.92
2019-04-22T21:09:18.026Z,7.30
2019-04-22T21:11:45.172Z,7.42
2019-04-22T21:14:15.040Z,7.92
2019-04-22T21:16:51.909Z,9.68
2019-04-22T21:19:21.692Z,7.15
2019-04-22T21:21:46.659Z,6.20
2019-04-22T21:24:09.209Z,7.95
2019-04-22T21:26:39.685Z,9.35
2019-04-22T21:29:09.994Z,9.38
2019-04-22T21:31:38.621Z,7.60
2019-04-22T21:34:10.283Z,8.58
2019-04-22T21:36:43.141Z,7.97
2019-04-22T21:39:06.760Z,12.78
2019-04-22T21:41:37.555Z,11.08
2019-04-22T21:44:04.126Z,8.35
2019-04-22T21:46:33.551Z,8.73
2019-04-22T21:49:08.030Z,8.33
2019-04-22T21:51:39.746Z,8.55
2019-04-22T21:54:09.687Z,9.55
2019-04-22T21:57:01.845Z,10.88
2019-04-22T21:59:10.995Z,6.55
2019-04-22T22:01:49.720Z,12.53
2019-04-22T22:04:15.254Z,7.55
2019-04-22T22:06:28.376Z,9.43
2019-04-22T22:09:13.031Z,10.88
2019-04-22T22:11:37.116Z,9.30
2019-04-22T22:14:07.576Z,11.63
2019-04-22T22:16:33.215Z,10.85
2019-04-22T22:19:09.826Z,8.33
2019-04-22T22:24:09.016Z,12.82
2019-04-22T22:26:35.302Z,16.80
2019-04-22T22:29:07.767Z,8.93
2019-04-22T22:31:38.154Z,12.03
2019-04-22T22:34:01.454Z,9.80
2019-04-22T22:36:23.837Z,10.10
2019-04-22T22:38:51.924Z,10.72
2019-04-22T22:41:07.650Z,10.00
2019-04-22T22:43:41.393Z,12.85
2019-04-22T22:46:17.719Z,11.43
2019-04-22T22:48:58.176Z,10.68
2019-04-22T22:51:27.447Z,10.23
2019-04-22T22:53:51.513Z,10.80
2019-04-22T22:56:35.633Z,14.20
2019-04-22T22:58:52.479Z,11.25
2019-04-22T23:01:23.425Z,11.35
2019-04-22T23:06:29.392Z,12.40
2019-04-22T23:08:51.645Z,13.25
2019-04-22T23:11:20.923Z,11.63
2019-04-22T23:13:49.777Z,11.40
2019-04-22T23:16:08.878Z,11.43
2019-04-22T23:18:25.941Z,12.82
2019-04-22T23:20:55.243Z,13.35
2019-04-22T23:23:50.086Z,12.18
2019-04-22T23:26:11.799Z,13.75
2019-04-22T23:28:45.961Z,17.07
2019-04-22T23:31:13.992Z,12.60
2019-04-22T23:34:01.033Z,13.55
2019-04-22T23:36:26.360Z,13.83
2019-04-22T23:39:09.184Z,16.85
2019-04-22T23:44:11.363Z,14.53
2019-04-22T23:46:30.673Z,13.58
2019-04-22T23:49:11.726Z,14.18
2019-04-22T23:51:51.204Z,16.17
2019-04-22T23:54:18.816Z,13.03
2019-04-22T23:56:43.494Z,13.05
2019-04-22T23:59:33.352Z,14.50
